Nevis, Minnesota
Current Conditions -  °F | °C
As of 9:53 PM on Saturday 25 Oct 2014 (Local Time) from KPKD Reporting Station
Clear Clear  
Wind Chill: 31°   Ceiling: Unl
Heat Index: 35°   Visibility: 10mi
Dew Point: 24°   Wind: 5mph
Humidity: 64%   Direction: 270°W
Pressure: 30.02"   Gusts: NA
Location:  46.97°N, 94.84°W
Report Text: KPKD 260253Z AUTO 27004KT 10SM CLR 02/M04 A3002 RMK AO2 SLP178 T00171044 56005 TSNO $
Loading
Personal Weather Stations






























Interactive Weather Map
Tropical Storm Tracking
New forecast layout! Learn more

10-Day Weather Forecast

Advertisements
Track Severe Weather on mobile